Terminal Aerodrome Forecast
Issued by NWS Greer, SC

Home | Current Version | Previous Version | Text Only | Print | Product List | Glossary On
Versions: 1 2 3 4 5 6 7 8 9 10 11 12 13 14 15 16 17 18 19 20 21 22 23 24 25 26 27 28 29 30 31 32
000
FTUS42 KGSP 240341 AAB
TAFCLT
TAF AMD
KCLT 240341Z 2404/2506 08010G18KT 6SM -RA BR SCT008 OVC015
      TEMPO 2404/2406 3SM RA BR BKN008 OVC015
     FM240600 08015G25KT 2SM RA BR OVC005
     FM241200 07010KT 4SM -SHRA BR OVC005
     FM241800 06006KT 4SM -SHRA BR BKN010 PROB30 2418/2424 2SM TSRA
      OVC007CB
     FM250000 05004KT P6SM BKN025=

USA.gov is the U.S. government's official web portal to all federal, state and local government web resources and services.